createdAt,value
2019-03-09T00:00:47.433Z,100513.28
2019-03-09T00:03:17.445Z,100510.55
2019-03-09T00:05:47.476Z,100500.42
2019-03-09T00:08:16.425Z,100493.81
2019-03-09T00:10:47.920Z,100489.41
2019-03-09T00:13:20.830Z,100485.85
2019-03-09T00:15:52.257Z,100480.49
2019-03-09T00:18:21.506Z,100479.12
2019-03-09T00:20:51.351Z,100470.70
2019-03-09T00:23:39.574Z,100462.73
2019-03-09T00:26:31.109Z,100447.26
2019-03-09T00:29:16.504Z,100445.07
2019-03-09T00:31:51.051Z,100438.86
2019-03-09T00:34:22.936Z,100440.16
2019-03-09T00:36:53.868Z,100427.80
2019-03-09T00:39:26.302Z,100420.70
2019-03-09T00:41:55.267Z,100413.22
2019-03-09T00:44:25.222Z,100409.21
2019-03-09T00:46:57.119Z,100412.22
2019-03-09T00:49:27.090Z,100404.72
2019-03-09T00:51:58.498Z,100400.70
2019-03-09T00:54:28.325Z,100398.38
2019-03-09T00:57:10.055Z,100398.68
2019-03-09T00:59:37.403Z,100384.55
2019-03-09T01:02:07.419Z,100382.35
2019-03-09T01:04:36.280Z,100377.52
2019-03-09T01:07:06.292Z,100374.01
2019-03-09T01:09:42.410Z,100364.28
2019-03-09T01:12:15.528Z,100355.42
2019-03-09T01:14:45.485Z,100354.10
2019-03-09T01:17:14.430Z,100347.44
2019-03-09T01:19:46.963Z,100339.06
2019-03-09T01:22:17.943Z,100331.50
2019-03-09T01:24:48.514Z,100322.19
2019-03-09T01:27:21.170Z,100321.71
2019-03-09T01:29:52.346Z,100304.86
2019-03-09T01:32:21.190Z,100305.25
2019-03-09T01:34:53.402Z,100303.48
2019-03-09T01:37:22.501Z,100292.94
2019-03-09T01:39:52.502Z,100273.16
2019-03-09T01:42:24.012Z,100269.64
2019-03-09T01:44:57.556Z,100265.33
2019-03-09T01:47:27.389Z,100250.41
2019-03-09T01:50:02.797Z,100242.95
2019-03-09T01:52:33.801Z,100227.20
2019-03-09T01:55:05.879Z,100228.10
2019-03-09T01:57:34.742Z,100209.22
2019-03-09T02:00:04.119Z,100206.16
2019-03-09T02:02:33.946Z,100190.83
2019-03-09T02:05:05.402Z,100193.50
2019-03-09T02:07:41.268Z,100177.20
2019-03-09T02:10:10.449Z,100170.21
2019-03-09T02:12:40.450Z,100170.62
2019-03-09T02:15:12.986Z,100160.03
2019-03-09T02:17:44.074Z,100152.98
2019-03-09T02:20:14.473Z,100142.86
2019-03-09T02:22:46.959Z,100133.58
2019-03-09T02:25:16.154Z,100134.03
2019-03-09T02:27:48.018Z,100112.90
2019-03-09T02:30:16.959Z,100111.58
2019-03-09T02:32:51.282Z,100100.17
2019-03-09T02:35:20.251Z,100096.67
2019-03-09T02:37:49.090Z,100087.87
2019-03-09T02:40:23.241Z,100090.52
2019-03-09T02:42:53.445Z,100081.23
2019-03-09T02:45:31.559Z,100071.16
2019-03-09T02:48:01.740Z,100058.02
2019-03-09T02:50:30.691Z,100055.45
2019-03-09T02:53:01.659Z,100051.06
2019-03-09T02:55:32.003Z,100040.92
2019-03-09T02:58:01.914Z,100028.62
2019-03-09T03:00:41.889Z,100031.26
2019-03-09T03:03:12.807Z,100011.48
2019-03-09T03:05:42.848Z,100007.07
2019-03-09T03:08:15.781Z,100004.02
2019-03-09T03:10:44.583Z,99982.44
2019-03-09T03:13:13.444Z,99990.42
2019-03-09T03:15:42.352Z,99982.09
2019-03-09T03:18:19.415Z,99967.14
2019-03-09T03:20:50.848Z,99965.38
2019-03-09T03:23:23.251Z,99950.43
2019-03-09T03:25:55.376Z,99940.81
2019-03-09T03:28:24.189Z,99928.55
2019-03-09T03:30:52.999Z,99931.19
2019-03-09T03:33:22.986Z,99921.11
2019-03-09T03:35:51.968Z,99907.00
2019-03-09T03:38:21.898Z,99907.00
2019-03-09T03:40:51.818Z,99900.44
2019-03-09T03:43:20.739Z,99901.76
2019-03-09T03:45:50.591Z,99880.67
2019-03-09T03:48:20.615Z,99881.50
2019-03-09T03:50:51.571Z,99871.36
2019-03-09T03:53:20.365Z,99867.39
2019-03-09T03:55:49.354Z,99852.91
2019-03-09T03:58:19.303Z,99840.98
2019-03-09T04:00:53.193Z,99839.22
2019-03-09T04:03:27.378Z,99831.30
2019-03-09T04:05:59.205Z,99825.94
2019-03-09T04:08:30.134Z,99810.05
2019-03-09T04:11:01.447Z,99799.04
2019-03-09T04:13:30.422Z,99801.19
2019-03-09T04:15:59.249Z,99788.77
2019-03-09T04:18:30.669Z,99792.61
2019-03-09T04:21:01.790Z,99770.20
2019-03-09T04:23:32.013Z,99766.99
2019-03-09T04:26:00.786Z,99760.80
2019-03-09T04:28:30.743Z,99755.48
2019-03-09T04:30:59.702Z,99757.63
2019-03-09T04:33:28.640Z,99750.94
2019-03-09T04:35:57.429Z,99748.67
2019-03-09T04:38:27.341Z,99743.80
2019-03-09T04:41:01.692Z,99752.09
2019-03-09T04:43:34.139Z,99726.47
2019-03-09T04:46:05.059Z,99729.47
2019-03-09T04:48:36.002Z,99736.03
2019-03-09T04:51:09.493Z,99738.22
2019-03-09T04:53:38.481Z,99745.57
2019-03-09T04:56:07.373Z,99750.81
2019-03-09T04:58:39.536Z,99749.37
2019-03-09T05:01:13.325Z,99745.81
2019-03-09T05:03:42.060Z,99753.20
2019-03-09T05:06:18.497Z,99744.33
2019-03-09T05:09:12.090Z,99741.69
2019-03-09T05:11:42.490Z,99750.27
2019-03-09T05:14:15.392Z,99762.12
2019-03-09T05:16:45.289Z,99761.95
2019-03-09T05:19:19.933Z,99760.13
2019-03-09T05:21:51.487Z,99760.37
2019-03-09T05:24:20.299Z,99773.08
2019-03-09T05:26:49.089Z,99776.05
2019-03-09T05:29:21.069Z,99771.00
2019-03-09T05:31:54.867Z,99772.73
2019-03-09T05:34:23.705Z,99768.72
2019-03-09T05:36:54.863Z,99753.36
2019-03-09T05:39:25.965Z,99758.19
2019-03-09T05:41:54.768Z,99760.33
2019-03-09T05:44:24.744Z,99759.83
2019-03-09T05:46:56.689Z,99760.70
2019-03-09T05:49:25.556Z,99769.45
2019-03-09T05:52:34.720Z,99763.26
2019-03-09T05:55:12.983Z,99766.73
2019-03-09T05:57:41.891Z,99770.69
2019-03-09T06:00:12.408Z,99763.63
2019-03-09T06:02:43.380Z,99772.02
2019-03-09T06:05:37.581Z,99770.23
2019-03-09T06:08:07.116Z,99781.22
2019-03-09T06:10:36.006Z,99791.80
2019-03-09T06:13:11.704Z,99773.33
2019-03-09T06:15:40.760Z,99783.41
2019-03-09T06:18:14.306Z,99785.98
2019-03-09T06:20:46.744Z,99784.20
2019-03-09T06:23:15.512Z,99789.08
2019-03-09T06:25:44.406Z,99793.91
2019-03-09T06:28:18.600Z,99787.87
2019-03-09T06:30:47.467Z,99789.70
2019-03-09T06:33:37.630Z,99797.22
2019-03-09T06:36:33.453Z,99802.30
2019-03-09T06:39:14.157Z,99794.68
2019-03-09T06:41:50.187Z,99816.25
2019-03-09T06:44:18.971Z,99820.22
2019-03-09T06:46:50.337Z,99827.73
2019-03-09T06:49:21.711Z,99810.42
2019-03-09T06:51:51.516Z,99825.42
2019-03-09T06:54:26.653Z,99819.30
2019-03-09T06:56:57.067Z,99832.12
2019-03-09T06:59:28.529Z,99842.70
2019-03-09T07:01:57.485Z,99853.20
2019-03-09T07:04:27.475Z,99866.78
2019-03-09T07:06:59.600Z,99880.30
2019-03-09T07:09:28.432Z,99884.27
2019-03-09T07:11:57.355Z,99879.92
2019-03-09T07:15:20.250Z,99888.77
2019-03-09T07:17:51.666Z,99886.58
2019-03-09T07:20:21.745Z,99894.05
2019-03-09T07:22:50.609Z,99890.42
2019-03-09T07:25:20.605Z,99904.06
2019-03-09T07:28:08.834Z,99905.34
2019-03-09T07:30:42.452Z,99897.23
2019-03-09T07:33:11.376Z,99907.02
2019-03-09T07:35:47.446Z,99907.86
2019-03-09T07:38:21.578Z,99910.37
2019-03-09T07:40:53.056Z,99901.77
2019-03-09T07:43:28.410Z,99921.03
2019-03-09T07:45:57.192Z,99908.16
2019-03-09T07:48:28.189Z,99914.66
2019-03-09T07:51:01.576Z,99923.91
2019-03-09T07:53:30.437Z,99927.38
2019-03-09T07:55:59.228Z,99921.18
2019-03-09T07:58:29.087Z,99931.14
2019-03-09T08:00:57.888Z,99938.17
2019-03-09T08:03:27.734Z,99938.36
2019-03-09T08:05:57.335Z,99939.92
2019-03-09T08:08:26.257Z,99936.38
2019-03-09T08:10:55.062Z,99940.59
2019-03-09T08:13:23.916Z,99936.30
2019-03-09T08:15:53.870Z,99935.94
2019-03-09T08:18:32.846Z,99942.38
2019-03-09T08:21:05.301Z,99943.88
2019-03-09T08:23:36.141Z,99955.52
2019-03-09T08:26:05.103Z,99923.45
2019-03-09T08:28:33.914Z,99950.72
2019-03-09T08:31:08.882Z,99940.72
2019-03-09T08:33:39.046Z,99943.65
2019-03-09T08:36:08.194Z,99957.20
2019-03-09T08:38:46.585Z,99939.96
2019-03-09T08:41:16.162Z,99951.94
2019-03-09T08:43:47.102Z,99977.41
2019-03-09T08:46:17.013Z,99970.27
2019-03-09T08:48:49.313Z,99999.20
2019-03-09T08:51:18.203Z,99984.97
2019-03-09T08:53:50.966Z,99992.01
2019-03-09T08:56:25.219Z,99984.73
2019-03-09T08:58:54.174Z,99999.11
2019-03-09T09:01:30.413Z,99995.50
2019-03-09T09:04:00.338Z,100000.45
2019-03-09T09:06:29.180Z,100004.09
2019-03-09T09:09:01.662Z,100003.88
2019-03-09T09:11:30.481Z,100001.03
2019-03-09T09:14:00.427Z,99998.97
2019-03-09T09:16:29.314Z,100002.23
2019-03-09T09:18:58.139Z,100011.55
2019-03-09T09:21:28.377Z,100012.05
2019-03-09T09:23:58.225Z,100008.73
2019-03-09T09:26:30.935Z,100031.47
2019-03-09T09:29:02.417Z,100032.66
2019-03-09T09:31:31.318Z,100031.47
2019-03-09T09:34:04.571Z,100051.69
2019-03-09T09:36:36.131Z,100044.72
2019-03-09T09:39:10.913Z,100038.66
2019-03-09T09:41:42.059Z,100025.12
2019-03-09T09:44:11.922Z,100042.19
2019-03-09T09:46:41.994Z,100067.50
2019-03-09T09:49:10.951Z,100062.06
2019-03-09T10:11:42.228Z,100083.59
2019-03-09T10:14:10.904Z,100099.81
2019-03-09T10:16:39.694Z,100089.51
2019-03-09T10:19:08.407Z,100083.98
2019-03-09T10:29:34.281Z,100096.84
2019-03-09T10:37:14.584Z,100109.81
2019-03-09T10:39:43.670Z,100112.67
2019-03-09T10:42:12.684Z,100121.77
2019-03-09T10:44:41.883Z,100117.05
2019-03-09T10:47:10.868Z,100127.48
2019-03-09T10:49:39.857Z,100121.23
2019-03-09T10:52:08.972Z,100117.50
2019-03-09T10:54:54.761Z,100128.37
2019-03-09T10:57:23.740Z,100124.66
2019-03-09T10:59:52.590Z,100128.30
2019-03-09T11:02:21.529Z,100122.52
2019-03-09T11:04:50.393Z,100130.34
2019-03-09T11:07:21.381Z,100127.84
2019-03-09T11:09:50.409Z,100138.56
2019-03-09T11:12:21.454Z,100152.70
2019-03-09T11:14:50.646Z,100149.98
2019-03-09T11:17:19.637Z,100151.77
2019-03-09T11:19:48.706Z,100149.52
2019-03-09T11:22:18.039Z,100158.91
2019-03-09T11:24:46.904Z,100152.94
2019-03-09T11:27:15.845Z,100148.03
2019-03-09T11:29:44.830Z,100152.80
2019-03-09T11:32:13.974Z,100152.45
2019-03-09T11:34:43.173Z,100139.44
2019-03-09T11:37:12.378Z,100152.96
2019-03-09T11:39:41.467Z,100139.06
2019-03-09T11:42:10.733Z,100146.08
2019-03-09T11:44:39.755Z,100141.74
2019-03-09T11:47:08.743Z,100137.45
2019-03-09T11:49:37.736Z,100133.38
2019-03-09T11:52:06.518Z,100135.17
2019-03-09T11:54:35.463Z,100129.89
2019-03-09T12:00:37.595Z,100132.09
2019-03-09T12:03:06.798Z,100126.30
2019-03-09T12:05:36.546Z,100130.84
2019-03-09T12:08:05.628Z,100119.71
2019-03-09T12:10:34.690Z,100106.05
2019-03-09T12:13:03.491Z,100109.69
2019-03-09T12:15:32.540Z,100102.91
2019-03-09T12:18:01.638Z,100122.66
2019-03-09T12:20:30.820Z,100107.64
2019-03-09T12:23:16.736Z,100121.08
2019-03-09T12:25:45.543Z,100116.15
2019-03-09T12:28:14.640Z,100118.67
2019-03-09T12:30:43.774Z,100123.84
2019-03-09T12:33:12.588Z,100114.60
2019-03-09T12:35:43.937Z,100111.63
2019-03-09T12:38:12.404Z,100104.72
2019-03-09T12:40:41.450Z,100099.20
2019-03-09T12:43:10.481Z,100103.06
2019-03-09T12:45:39.490Z,100107.00
2019-03-09T12:48:09.015Z,100105.78
2019-03-09T12:50:38.025Z,100094.87
2019-03-09T12:53:07.175Z,100095.75
2019-03-09T12:55:36.346Z,100096.38
2019-03-09T12:58:05.765Z,100111.25
2019-03-09T13:00:34.824Z,100104.95
2019-03-09T13:03:04.646Z,100094.95
2019-03-09T13:05:33.668Z,100090.19
2019-03-09T13:08:02.870Z,100089.38
2019-03-09T13:10:32.221Z,100085.80
2019-03-09T13:13:01.653Z,100083.00
2019-03-09T13:15:30.894Z,100080.64
2019-03-09T13:18:00.070Z,100072.06
2019-03-09T13:20:29.231Z,100070.68
2019-03-09T13:22:58.562Z,100062.19
2019-03-09T13:25:27.773Z,100057.20
2019-03-09T13:27:56.903Z,100051.70
2019-03-09T13:30:29.548Z,100050.29
2019-03-09T13:32:58.960Z,100044.91
2019-03-09T13:35:28.090Z,100039.48
2019-03-09T13:37:57.311Z,100036.83
2019-03-09T13:40:26.414Z,100029.84
2019-03-09T13:42:55.536Z,100032.38
2019-03-09T13:45:24.796Z,100030.19
2019-03-09T13:47:54.073Z,100028.98
2019-03-09T13:50:23.303Z,100015.84
2019-03-09T13:52:52.293Z,100010.13
2019-03-09T13:55:21.591Z,100013.09
2019-03-09T13:57:50.838Z,100002.30
2019-03-09T14:00:20.159Z,99996.70
2019-03-09T14:02:50.030Z,99989.63
2019-03-09T14:08:50.860Z,99981.48
2019-03-09T14:11:20.167Z,99988.33
2019-03-09T14:13:50.413Z,99968.95
2019-03-09T14:16:20.886Z,99975.98
2019-03-09T14:18:51.024Z,99974.80
2019-03-09T14:21:19.926Z,99968.74
2019-03-09T14:23:49.411Z,99965.48
2019-03-09T14:29:50.930Z,99953.08
2019-03-09T14:32:20.765Z,99939.28
2019-03-09T14:34:49.724Z,99929.19
2019-03-09T14:37:18.709Z,99909.86
2019-03-09T14:39:47.829Z,99906.05
2019-03-09T14:42:17.251Z,99901.61
2019-03-09T14:44:46.405Z,99886.44
2019-03-09T14:47:15.481Z,99886.03
2019-03-09T14:49:47.454Z,99880.14
2019-03-09T14:52:16.716Z,99881.38
2019-03-09T14:54:45.732Z,99867.02
2019-03-09T14:57:14.686Z,99875.84
2019-03-09T14:59:43.676Z,99865.63
2019-03-09T15:02:12.916Z,99855.13
2019-03-09T15:04:42.001Z,99855.30
2019-03-09T15:07:10.818Z,99844.16
2019-03-09T15:09:39.883Z,99827.35
2019-03-09T15:12:08.868Z,99827.29
2019-03-09T15:14:37.571Z,99817.37
2019-03-09T15:17:06.630Z,99811.53
2019-03-09T15:19:35.618Z,99805.41
2019-03-09T15:22:04.660Z,99792.29
2019-03-09T15:24:33.633Z,99788.44
2019-03-09T15:27:02.388Z,99771.05
2019-03-09T15:29:32.742Z,99759.86
2019-03-09T15:32:01.887Z,99745.88
2019-03-09T15:34:30.839Z,99737.27
2019-03-09T15:36:59.817Z,99726.53
2019-03-09T15:39:28.913Z,99719.26
2019-03-09T15:41:57.889Z,99709.39
2019-03-09T15:44:26.971Z,99711.30
2019-03-09T15:46:56.049Z,99701.31
2019-03-09T15:49:25.086Z,99695.66
2019-03-09T15:51:56.876Z,99685.20
2019-03-09T15:54:25.853Z,99680.83
2019-03-09T15:56:54.665Z,99673.39
2019-03-09T15:59:23.556Z,99680.55
2019-03-09T16:01:53.419Z,99665.19
2019-03-09T16:04:22.435Z,99659.11
2019-03-09T16:06:51.205Z,99660.59
2019-03-09T16:09:20.129Z,99658.93
2019-03-09T16:11:49.271Z,99669.14
2019-03-09T16:14:18.207Z,99677.66
2019-03-09T16:16:47.140Z,99673.66
2019-03-09T16:19:16.172Z,99674.25
2019-03-09T16:21:45.161Z,99677.91
2019-03-09T16:24:14.160Z,99660.21
2019-03-09T16:26:43.315Z,99679.64
2019-03-09T16:29:12.288Z,99665.53
2019-03-09T16:31:41.018Z,99658.41
2019-03-09T16:34:10.057Z,99668.06
2019-03-09T16:36:39.018Z,99670.55
2019-03-09T16:39:09.138Z,99668.55
2019-03-09T16:41:38.195Z,99652.52
2019-03-09T16:44:08.015Z,99655.81
2019-03-09T16:46:36.801Z,99661.72
2019-03-09T16:49:05.804Z,99675.49
2019-03-09T16:51:34.844Z,99678.38
2019-03-09T16:54:03.748Z,99679.80
2019-03-09T16:56:32.806Z,99686.09
2019-03-09T16:59:01.745Z,99681.82
2019-03-09T17:01:30.683Z,99679.17
2019-03-09T17:03:59.739Z,99681.87
2019-03-09T17:06:28.726Z,99685.47
2019-03-09T17:08:58.039Z,99682.46
2019-03-09T17:11:27.126Z,99690.50
2019-03-09T17:13:56.119Z,99703.67
2019-03-09T17:16:25.571Z,99732.81
2019-03-09T17:18:54.486Z,99723.64
2019-03-09T17:21:23.502Z,99726.11
2019-03-09T17:23:55.282Z,99740.88
2019-03-09T17:26:23.996Z,99740.69
2019-03-09T17:28:52.968Z,99746.07
2019-03-09T17:31:22.032Z,99770.41
2019-03-09T17:33:51.014Z,99764.39
2019-03-09T17:36:19.720Z,99761.00
2019-03-09T17:38:48.750Z,99797.73
2019-03-09T17:41:17.719Z,99817.08
2019-03-09T17:43:46.654Z,99835.05
2019-03-09T17:46:15.583Z,99861.33
2019-03-09T17:48:44.703Z,99885.34
2019-03-09T17:51:13.651Z,99900.33
2019-03-09T17:53:43.896Z,99899.69
2019-03-09T17:56:12.928Z,99920.70
2019-03-09T17:58:42.140Z,99931.52
2019-03-09T18:01:11.082Z,99946.21
2019-03-09T18:03:40.093Z,99956.22
2019-03-09T18:06:09.037Z,99975.83
2019-03-09T18:08:37.754Z,99989.23
2019-03-09T18:11:07.726Z,99997.41
2019-03-09T18:13:36.776Z,100016.09
2019-03-09T18:16:05.609Z,100022.42
2019-03-09T18:18:34.668Z,100041.52
2019-03-09T18:21:03.854Z,100057.02
2019-03-09T18:23:32.823Z,100057.62
2019-03-09T18:26:01.823Z,100073.05
2019-03-09T18:28:30.769Z,100084.07
2019-03-09T18:30:59.716Z,100096.97
2019-03-09T18:33:29.004Z,100119.05
2019-03-09T18:35:57.985Z,100114.77
2019-03-09T18:38:26.722Z,100127.55
2019-03-09T18:40:55.733Z,100129.73
2019-03-09T18:43:24.756Z,100145.13
2019-03-09T18:45:53.470Z,100153.02
2019-03-09T18:48:22.449Z,100168.30
2019-03-09T18:50:51.167Z,100175.31
2019-03-09T18:53:20.149Z,100183.20
2019-03-09T18:55:58.663Z,100187.58
2019-03-09T18:58:20.126Z,100187.05
2019-03-09T19:00:49.145Z,100195.34
2019-03-09T19:03:18.084Z,100188.23
2019-03-09T19:05:47.081Z,100192.05
2019-03-09T19:08:16.023Z,100186.72
2019-03-09T19:10:44.993Z,100198.56
2019-03-09T19:13:13.704Z,100191.52
2019-03-09T19:15:42.661Z,100184.82
2019-03-09T19:18:11.526Z,100185.24
2019-03-09T19:20:42.808Z,100186.11
2019-03-09T19:23:11.770Z,100190.99
2019-03-09T19:25:40.691Z,100187.95
2019-03-09T19:28:09.632Z,100185.44
2019-03-09T19:30:38.377Z,100192.98
2019-03-09T19:33:07.389Z,100192.58
2019-03-09T19:35:36.373Z,100203.58
2019-03-09T19:38:08.681Z,100210.64
2019-03-09T19:40:37.658Z,100199.65
2019-03-09T19:43:06.656Z,100206.27
2019-03-09T19:45:35.381Z,100199.67
2019-03-09T19:48:04.656Z,100192.19
2019-03-09T19:50:33.414Z,100198.30
2019-03-09T19:53:02.342Z,100200.49
2019-03-09T19:55:31.320Z,100207.88
2019-03-09T19:58:00.296Z,100214.33
2019-03-09T20:00:29.165Z,100209.85
2019-03-09T20:02:58.148Z,100227.67
2019-03-09T20:05:26.874Z,100222.20
2019-03-09T20:07:55.884Z,100218.58
2019-03-09T20:10:25.125Z,100224.62
2019-03-09T20:12:54.185Z,100224.56
2019-03-09T20:15:23.307Z,100242.92
2019-03-09T20:17:52.339Z,100269.29
2019-03-09T20:20:21.388Z,100251.66
2019-03-09T20:22:50.412Z,100256.91
2019-03-09T20:25:19.241Z,100257.41
2019-03-09T20:27:48.768Z,100272.04
2019-03-09T20:30:18.078Z,100278.23
2019-03-09T20:32:47.228Z,100286.62
2019-03-09T20:35:16.376Z,100275.73
2019-03-09T20:37:45.389Z,100283.68
2019-03-09T20:40:15.047Z,100276.27
2019-03-09T20:42:44.167Z,100295.23
2019-03-09T20:45:14.912Z,100311.96
2019-03-09T20:47:44.617Z,100311.15
2019-03-09T20:50:15.372Z,100293.94
2019-03-09T20:52:44.440Z,100310.62
2019-03-09T20:55:14.021Z,100305.23
2019-03-09T20:57:43.086Z,100307.40
2019-03-09T21:00:19.545Z,100302.08
2019-03-09T21:02:48.477Z,100310.38
2019-03-09T21:05:17.396Z,100298.93
2019-03-09T21:07:47.062Z,100314.71
2019-03-09T21:10:17.690Z,100318.65
2019-03-09T21:13:01.059Z,100318.20
2019-03-09T21:15:31.922Z,100316.80
2019-03-09T21:18:01.115Z,100310.95
2019-03-09T21:20:30.463Z,100317.00
2019-03-09T21:22:59.445Z,100317.37
2019-03-09T21:25:28.770Z,100340.98
2019-03-09T21:27:58.264Z,100385.77
2019-03-09T21:30:30.093Z,100412.12
2019-03-09T21:33:00.624Z,100404.92
2019-03-09T21:35:30.497Z,100383.79
2019-03-09T21:37:59.620Z,100379.55
2019-03-09T21:40:28.834Z,100381.84
2019-03-09T21:42:58.074Z,100372.69
2019-03-09T21:45:27.443Z,100382.03
2019-03-09T21:47:56.677Z,100398.42
2019-03-09T21:50:26.006Z,100398.97
2019-03-09T21:52:54.783Z,100393.78
2019-03-09T21:55:23.873Z,100399.09
2019-03-09T21:57:53.303Z,100366.92
2019-03-09T22:00:22.664Z,100401.73
2019-03-09T22:02:52.091Z,100399.95
2019-03-09T22:05:21.095Z,100409.06
2019-03-09T22:07:50.334Z,100404.97
2019-03-09T22:10:20.385Z,100396.44
2019-03-09T22:12:49.879Z,100406.86
2019-03-09T22:15:18.906Z,100398.84
2019-03-09T22:17:48.549Z,100411.48
2019-03-09T22:20:20.539Z,100406.98
2019-03-09T22:22:49.923Z,100413.91
2019-03-09T22:25:20.823Z,100406.41
2019-03-09T22:27:49.849Z,100401.98
2019-03-09T22:30:18.763Z,100412.09
2019-03-09T22:32:47.577Z,100414.20
2019-03-09T22:35:16.589Z,100419.01
2019-03-09T22:37:45.558Z,100413.73
2019-03-09T22:40:15.878Z,100403.63
2019-03-09T22:42:44.958Z,100404.98
2019-03-09T22:45:13.989Z,100410.78
2019-03-09T22:47:42.967Z,100420.91
2019-03-09T22:50:13.075Z,100403.77
2019-03-09T22:52:42.093Z,100398.49
2019-03-09T22:55:11.146Z,100399.41
2019-03-09T22:57:39.943Z,100404.73
2019-03-09T23:00:11.588Z,100404.75
2019-03-09T23:02:40.683Z,100403.88
2019-03-09T23:05:10.109Z,100382.77
2019-03-09T23:07:39.217Z,100397.64
2019-03-09T23:10:10.409Z,100405.98
2019-03-09T23:12:39.240Z,100412.59
2019-03-09T23:15:09.643Z,100406.05
2019-03-09T23:17:38.682Z,100420.13
2019-03-09T23:20:10.065Z,100432.36
2019-03-09T23:22:39.010Z,100430.48
2019-03-09T23:25:07.968Z,100434.81
2019-03-09T23:27:37.048Z,100430.77
2019-03-09T23:30:08.523Z,100437.71
2019-03-09T23:32:37.487Z,100438.14
2019-03-09T23:35:06.632Z,100434.65
2019-03-09T23:37:35.770Z,100446.52
2019-03-09T23:40:04.938Z,100453.95
2019-03-09T23:42:34.133Z,100449.56
2019-03-09T23:45:03.254Z,100451.80
2019-03-09T23:47:32.256Z,100465.51
2019-03-09T23:50:01.208Z,100458.05
2019-03-09T23:52:30.071Z,100463.77
2019-03-09T23:54:59.160Z,100462.52
2019-03-09T23:57:28.020Z,100468.28
2019-03-09T23:59:57.022Z,100458.60
